createdAt,value
2017-09-26T00:00:04.283Z,12.97
2017-09-26T00:02:31.813Z,19.73
2017-09-26T00:04:59.343Z,16.10
2017-09-26T00:07:26.904Z,19.70
2017-09-26T00:09:54.432Z,15.00
2017-09-26T00:12:21.994Z,16.60
2017-09-26T00:14:49.528Z,18.93
2017-09-26T00:17:17.078Z,18.07
2017-09-26T00:19:44.611Z,17.60
2017-09-26T00:22:12.944Z,13.67
2017-09-26T00:24:40.489Z,13.73
2017-09-26T00:27:08.056Z,16.90
2017-09-26T00:29:35.603Z,20.10
2017-09-26T00:32:03.168Z,17.80
2017-09-26T00:34:30.711Z,15.47
2017-09-26T00:36:58.279Z,21.10
2017-09-26T00:39:25.820Z,21.07
2017-09-26T00:41:53.388Z,20.10
2017-09-26T00:44:20.923Z,21.53
2017-09-26T00:46:49.249Z,17.27
2017-09-26T00:49:16.782Z,28.00
2017-09-26T00:51:44.345Z,20.73
2017-09-26T00:54:11.874Z,19.40
2017-09-26T00:56:39.413Z,24.10
2017-09-26T00:59:06.984Z,21.23
2017-09-26T01:01:34.524Z,20.93
2017-09-26T01:04:04.598Z,25.00
2017-09-26T01:06:37.895Z,25.20
2017-09-26T01:09:05.454Z,21.37
2017-09-26T01:11:33.011Z,23.17
2017-09-26T01:14:00.574Z,22.47
2017-09-26T01:16:28.118Z,21.80
2017-09-26T01:18:56.447Z,22.10
2017-09-26T01:21:23.988Z,20.97
2017-09-26T01:23:51.555Z,22.33
2017-09-26T01:26:19.090Z,25.80
2017-09-26T01:28:46.656Z,22.80
2017-09-26T01:31:14.195Z,20.20
2017-09-26T01:33:42.518Z,23.67
2017-09-26T01:36:10.055Z,22.17
2017-09-26T01:38:37.615Z,18.17
2017-09-26T01:41:17.016Z,23.43
2017-09-26T01:43:44.572Z,19.77
2017-09-26T01:46:12.105Z,21.80
2017-09-26T01:48:40.434Z,16.90
2017-09-26T01:51:08.731Z,17.83
2017-09-26T01:53:36.287Z,17.70
2017-09-26T01:56:03.832Z,19.97
2017-09-26T01:58:37.023Z,14.90
2017-09-26T02:01:04.563Z,24.40
2017-09-26T02:03:32.091Z,15.70
2017-09-26T02:05:59.650Z,17.27
2017-09-26T02:08:27.187Z,17.87
2017-09-26T02:10:54.738Z,20.87
2017-09-26T02:13:22.261Z,17.93
2017-09-26T02:16:03.407Z,17.37
2017-09-26T02:18:30.951Z,16.70
2017-09-26T02:20:58.505Z,18.30
2017-09-26T02:23:26.044Z,19.97
2017-09-26T02:25:53.599Z,19.93
2017-09-26T02:28:21.135Z,17.17
2017-09-26T02:30:48.691Z,19.13
2017-09-26T02:33:16.226Z,16.47
2017-09-26T02:35:43.787Z,24.83
2017-09-26T02:38:11.322Z,17.00
2017-09-26T02:40:38.891Z,19.40
2017-09-26T02:43:06.438Z,15.73
2017-09-26T02:45:34.002Z,18.57
2017-09-26T02:48:01.528Z,17.10
2017-09-26T02:50:29.858Z,20.33
2017-09-26T02:52:57.396Z,19.90
2017-09-26T02:55:24.959Z,22.97
2017-09-26T02:57:52.491Z,18.43
2017-09-26T03:00:20.067Z,17.50
2017-09-26T03:02:47.607Z,16.03
2017-09-26T03:05:15.907Z,19.97
2017-09-26T03:07:43.463Z,19.23
2017-09-26T03:10:10.992Z,19.37
2017-09-26T03:12:39.313Z,25.07
2017-09-26T03:15:06.855Z,21.80
2017-09-26T03:17:34.407Z,18.97
2017-09-26T03:20:01.951Z,24.57
2017-09-26T03:22:30.283Z,22.53
2017-09-26T03:24:57.815Z,18.83
2017-09-26T03:27:25.376Z,19.90
2017-09-26T03:29:52.919Z,21.90
2017-09-26T03:32:20.473Z,22.33
2017-09-26T03:34:48.775Z,20.70
2017-09-26T03:37:16.332Z,23.27
2017-09-26T03:39:43.867Z,20.97
2017-09-26T03:42:12.197Z,20.80
2017-09-26T03:44:39.730Z,20.37
2017-09-26T03:47:07.278Z,20.30
2017-09-26T03:49:34.815Z,20.63
2017-09-26T03:52:03.147Z,21.67
2017-09-26T03:54:30.673Z,19.03
2017-09-26T03:56:58.242Z,16.73
2017-09-26T03:59:25.775Z,18.60
2017-09-26T04:01:54.071Z,20.83
2017-09-26T04:04:21.642Z,18.83
2017-09-26T04:06:49.171Z,22.13
2017-09-26T04:09:17.499Z,20.93
2017-09-26T04:11:45.030Z,23.60
2017-09-26T04:14:12.590Z,19.30
2017-09-26T04:16:40.122Z,23.93
2017-09-26T04:19:08.456Z,18.83
2017-09-26T04:21:35.983Z,22.27
2017-09-26T04:24:03.539Z,18.37
2017-09-26T04:26:31.075Z,20.07
2017-09-26T04:28:58.639Z,18.50
2017-09-26T04:31:26.945Z,17.10
2017-09-26T04:33:54.495Z,19.57
2017-09-26T04:36:22.030Z,22.77
2017-09-26T04:38:49.591Z,19.97
2017-09-26T04:41:17.127Z,17.27
2017-09-26T04:43:44.690Z,20.60
2017-09-26T04:46:12.224Z,21.00
2017-09-26T04:48:39.854Z,20.17
2017-09-26T04:51:07.392Z,24.40
2017-09-26T04:53:35.719Z,19.00
2017-09-26T04:56:03.256Z,19.37
2017-09-26T04:58:30.791Z,23.33
2017-09-26T05:00:59.119Z,18.70
2017-09-26T05:03:26.707Z,21.40
2017-09-26T05:05:54.270Z,23.40
2017-09-26T05:08:21.802Z,19.63
2017-09-26T05:10:49.351Z,20.43
2017-09-26T05:13:16.893Z,20.10
2017-09-26T05:15:44.526Z,20.07
2017-09-26T05:18:12.079Z,21.27
2017-09-26T05:20:39.644Z,24.83
2017-09-26T05:23:08.186Z,25.63
2017-09-26T05:25:35.922Z,23.33
2017-09-26T05:28:03.478Z,20.80
2017-09-26T05:30:31.238Z,24.43
2017-09-26T05:32:59.836Z,22.87
2017-09-26T05:35:28.171Z,24.27
2017-09-26T05:37:55.847Z,22.20
2017-09-26T05:40:24.182Z,20.90
2017-09-26T05:42:51.719Z,21.97
2017-09-26T05:45:19.276Z,24.10
2017-09-26T05:47:46.811Z,23.07
2017-09-26T05:50:15.137Z,21.60
2017-09-26T05:52:42.672Z,21.07
2017-09-26T05:55:10.235Z,20.27
2017-09-26T05:57:37.776Z,23.60
2017-09-26T06:00:06.090Z,23.23
2017-09-26T06:02:33.624Z,19.33
2017-09-26T06:05:01.162Z,20.57
2017-09-26T06:07:29.480Z,28.43
2017-09-26T06:09:57.023Z,23.03
2017-09-26T06:12:24.579Z,24.60
2017-09-26T06:14:52.120Z,27.00
2017-09-26T06:17:20.470Z,25.77
2017-09-26T06:19:47.998Z,26.87
2017-09-26T06:22:15.558Z,20.30
2017-09-26T06:24:43.082Z,21.63
2017-09-26T06:27:11.403Z,22.90
2017-09-26T06:29:38.932Z,23.17
2017-09-26T06:32:06.495Z,15.60
2017-09-26T06:34:34.026Z,23.33
2017-09-26T06:37:02.342Z,22.57
2017-09-26T06:39:29.866Z,19.40
2017-09-26T06:41:58.187Z,21.47
2017-09-26T06:44:25.722Z,20.53
2017-09-26T06:46:53.271Z,17.70
2017-09-26T06:49:21.566Z,17.60
2017-09-26T06:51:49.119Z,21.93
2017-09-26T06:54:16.654Z,18.30
2017-09-26T06:56:44.983Z,18.53
2017-09-26T06:59:12.519Z,17.40
2017-09-26T07:01:40.081Z,15.17
2017-09-26T07:04:07.623Z,17.37
2017-09-26T07:06:35.951Z,19.30
2017-09-26T07:09:03.492Z,16.33
2017-09-26T07:11:31.107Z,13.83
2017-09-26T07:13:59.424Z,19.60
2017-09-26T07:16:26.952Z,18.17
2017-09-26T07:18:55.279Z,18.03
2017-09-26T07:21:22.904Z,20.47
2017-09-26T07:23:50.468Z,20.00
2017-09-26T07:26:18.772Z,24.53
2017-09-26T07:28:46.331Z,19.87
2017-09-26T07:31:13.867Z,24.03
2017-09-26T07:33:41.426Z,19.33
2017-09-26T07:36:09.719Z,23.50
2017-09-26T07:38:37.284Z,24.60
2017-09-26T07:41:04.823Z,26.43
2017-09-26T07:43:32.389Z,27.47
2017-09-26T07:45:59.927Z,25.27
2017-09-26T07:48:28.262Z,27.17
2017-09-26T07:50:56.012Z,27.17
2017-09-26T07:53:23.569Z,22.60
2017-09-26T07:55:51.102Z,23.53
2017-09-26T07:58:19.423Z,21.10
2017-09-26T08:00:47.243Z,22.07
2017-09-26T08:03:15.702Z,26.33
2017-09-26T08:05:43.506Z,24.20
2017-09-26T08:08:11.341Z,24.03
2017-09-26T08:10:39.647Z,21.10
2017-09-26T08:13:07.204Z,22.80
2017-09-26T08:15:34.747Z,23.50
2017-09-26T08:18:03.080Z,24.67
2017-09-26T08:20:30.606Z,22.00
2017-09-26T08:22:58.170Z,25.07
2017-09-26T08:25:25.694Z,26.50
2017-09-26T08:27:54.026Z,22.00
2017-09-26T08:30:21.559Z,21.70
2017-09-26T08:32:49.091Z,26.93
2017-09-26T08:35:17.414Z,20.73
2017-09-26T08:37:44.938Z,23.23
2017-09-26T08:40:13.267Z,20.77
2017-09-26T08:42:40.796Z,18.90
2017-09-26T08:45:08.357Z,16.63
2017-09-26T08:47:35.887Z,20.00
2017-09-26T08:50:04.225Z,23.73
2017-09-26T08:52:31.755Z,22.20
2017-09-26T08:54:59.306Z,20.07
2017-09-26T08:57:26.835Z,22.17
2017-09-26T08:59:54.396Z,22.77
2017-09-26T09:02:21.932Z,20.37
2017-09-26T09:04:49.491Z,22.67
2017-09-26T09:07:17.029Z,20.07
2017-09-26T09:09:44.586Z,19.50
2017-09-26T09:12:12.114Z,19.87
2017-09-26T09:14:40.433Z,19.17
2017-09-26T09:17:07.954Z,18.10
2017-09-26T09:19:35.502Z,21.00
2017-09-26T09:22:03.803Z,19.73
2017-09-26T09:24:31.442Z,16.43
2017-09-26T09:26:59.738Z,16.67
2017-09-26T09:29:27.298Z,16.87
2017-09-26T09:31:54.835Z,15.33
2017-09-26T09:34:23.168Z,16.13
2017-09-26T09:36:50.694Z,16.27
2017-09-26T09:39:18.227Z,14.97
2017-09-26T09:41:46.554Z,12.70
2017-09-26T09:44:14.083Z,20.00
2017-09-26T09:46:41.635Z,11.83
2017-09-26T09:49:09.930Z,16.50
2017-09-26T09:51:37.482Z,12.73
2017-09-26T09:54:05.019Z,14.13
2017-09-26T09:56:33.342Z,15.40
2017-09-26T09:59:00.862Z,12.87
2017-09-26T10:01:29.187Z,11.70
2017-09-26T10:03:56.715Z,13.63
2017-09-26T10:06:24.272Z,17.40
2017-09-26T10:08:51.806Z,11.00
2017-09-26T10:11:19.355Z,11.90
2017-09-26T10:13:46.886Z,10.60
2017-09-26T10:16:14.453Z,12.27
2017-09-26T10:18:41.978Z,11.67
2017-09-26T10:21:09.527Z,11.33
2017-09-26T10:23:37.827Z,13.57
2017-09-26T10:26:05.388Z,10.53
2017-09-26T10:28:32.916Z,11.43
2017-09-26T10:31:01.211Z,11.10
2017-09-26T10:33:28.767Z,11.47
2017-09-26T10:35:56.295Z,11.13
2017-09-26T10:38:23.848Z,10.73
2017-09-26T10:40:51.370Z,11.53
2017-09-26T10:43:18.935Z,12.90
2017-09-26T10:45:46.459Z,13.00
2017-09-26T10:48:14.012Z,10.23
2017-09-26T10:50:42.311Z,11.10
2017-09-26T10:53:09.866Z,12.57
2017-09-26T10:55:37.535Z,12.97
2017-09-26T10:58:05.087Z,14.53
2017-09-26T11:00:32.610Z,9.87
2017-09-26T11:03:00.171Z,10.77
2017-09-26T11:05:28.479Z,8.67
2017-09-26T11:07:56.034Z,8.90
2017-09-26T11:10:24.327Z,11.63
2017-09-26T11:12:51.887Z,11.63
2017-09-26T11:15:19.415Z,10.80
2017-09-26T11:17:47.726Z,11.13
2017-09-26T11:20:15.248Z,9.60
2017-09-26T11:22:43.575Z,10.30
2017-09-26T11:25:11.100Z,9.30
2017-09-26T11:27:39.419Z,11.43
2017-09-26T11:30:06.942Z,13.60
2017-09-26T11:32:34.504Z,9.67
2017-09-26T11:35:02.028Z,9.70
2017-09-26T11:37:29.616Z,11.93
2017-09-26T11:39:57.909Z,10.60
2017-09-26T11:42:25.435Z,8.70
2017-09-26T11:44:52.991Z,13.40
2017-09-26T11:47:20.513Z,8.33
2017-09-26T11:49:48.070Z,10.50
2017-09-26T11:52:15.594Z,8.67
2017-09-26T11:54:43.903Z,9.73
2017-09-26T11:57:11.435Z,11.00
2017-09-26T11:59:38.982Z,6.63
2017-09-26T12:02:07.270Z,7.13
2017-09-26T12:04:35.589Z,8.07
2017-09-26T12:07:03.115Z,8.10
2017-09-26T12:09:30.672Z,6.47
2017-09-26T12:11:58.204Z,7.93
2017-09-26T12:14:25.755Z,7.50
2017-09-26T12:16:53.275Z,8.20
2017-09-26T12:19:20.824Z,7.00
2017-09-26T12:21:48.366Z,7.13
2017-09-26T12:24:15.915Z,8.70
2017-09-26T12:26:44.211Z,12.60
2017-09-26T12:29:11.759Z,11.70
2017-09-26T12:31:39.290Z,15.97
2017-09-26T12:34:06.836Z,13.27
2017-09-26T12:36:34.368Z,13.40
2017-09-26T12:39:01.938Z,13.53
2017-09-26T12:41:29.462Z,15.03
2017-09-26T12:43:56.991Z,13.47
2017-09-26T12:46:25.317Z,10.50
2017-09-26T12:48:52.855Z,17.00
2017-09-26T12:51:20.424Z,17.40
2017-09-26T12:53:47.952Z,10.93
2017-09-26T12:56:16.276Z,10.60
2017-09-26T12:58:43.800Z,9.73
2017-09-26T13:01:12.113Z,9.57
2017-09-26T13:03:39.642Z,9.73
2017-09-26T13:06:07.956Z,10.20
2017-09-26T13:08:35.487Z,8.50
2017-09-26T13:11:03.051Z,10.73
2017-09-26T13:13:30.574Z,9.93
2017-09-26T13:15:58.126Z,12.60
2017-09-26T13:18:25.652Z,9.27
2017-09-26T13:20:53.200Z,9.00
2017-09-26T13:23:20.728Z,10.23
2017-09-26T13:25:49.038Z,9.47
2017-09-26T13:28:16.570Z,9.20
2017-09-26T13:30:44.897Z,9.77
2017-09-26T13:33:12.425Z,13.90
2017-09-26T13:35:39.975Z,8.50
2017-09-26T13:38:07.506Z,11.13
2017-09-26T13:40:35.055Z,10.47
2017-09-26T13:43:02.588Z,11.13
2017-09-26T13:45:30.151Z,8.63
2017-09-26T13:47:57.670Z,8.77
2017-09-26T13:50:25.200Z,10.77
2017-09-26T13:52:52.746Z,8.50
2017-09-26T13:55:20.269Z,8.40
2017-09-26T13:57:47.819Z,7.03
2017-09-26T14:00:15.352Z,7.60
2017-09-26T14:02:43.658Z,8.10
2017-09-26T14:05:11.186Z,11.30
2017-09-26T14:07:39.504Z,6.10
2017-09-26T14:10:07.026Z,8.53
2017-09-26T14:12:35.343Z,7.20
2017-09-26T14:15:02.866Z,11.13
2017-09-26T14:17:31.185Z,7.67
2017-09-26T14:19:58.707Z,6.80
2017-09-26T14:22:27.020Z,6.77
2017-09-26T14:24:54.551Z,6.70
2017-09-26T14:27:22.859Z,6.70
2017-09-26T14:29:50.379Z,9.23
2017-09-26T14:32:18.699Z,7.53
2017-09-26T14:34:46.225Z,10.13
2017-09-26T14:37:13.772Z,8.43
2017-09-26T14:42:16.134Z,8.10
2017-09-26T14:44:43.667Z,8.20
2017-09-26T14:47:11.194Z,8.20
2017-09-26T14:49:38.748Z,10.80
2017-09-26T14:52:06.284Z,8.30
2017-09-26T14:54:33.839Z,8.30
2017-09-26T14:57:01.371Z,7.50
2017-09-26T14:59:28.915Z,9.40
2017-09-26T15:01:56.438Z,6.73
2017-09-26T15:04:24.752Z,8.17
2017-09-26T15:06:52.276Z,9.80
2017-09-26T15:09:20.588Z,7.60
2017-09-26T15:11:48.110Z,8.77
2017-09-26T15:14:16.476Z,8.03
2017-09-26T15:16:44.007Z,12.53
2017-09-26T15:19:11.558Z,8.80
2017-09-26T15:21:39.081Z,7.33
2017-09-26T15:24:06.630Z,8.53
2017-09-26T15:26:34.919Z,8.63
2017-09-26T15:29:02.474Z,7.83
2017-09-26T15:31:30.765Z,8.27
2017-09-26T15:33:58.315Z,8.50
2017-09-26T15:36:25.834Z,8.60
2017-09-26T15:38:53.404Z,7.87
2017-09-26T15:41:20.926Z,7.10
2017-09-26T15:43:48.451Z,7.73
2017-09-26T15:46:16.003Z,8.03
2017-09-26T15:48:44.295Z,9.87
2017-09-26T15:51:11.850Z,7.73
2017-09-26T15:53:39.379Z,7.13
2017-09-26T15:56:07.044Z,7.77
2017-09-26T15:58:34.574Z,8.97
2017-09-26T16:01:02.895Z,8.10
2017-09-26T16:03:31.186Z,9.00
2017-09-26T16:05:58.730Z,9.57
2017-09-26T16:08:27.020Z,8.27
2017-09-26T16:10:54.574Z,7.83
2017-09-26T16:13:22.862Z,9.00
2017-09-26T16:15:50.418Z,8.57
2017-09-26T16:18:17.946Z,7.90
2017-09-26T16:20:45.510Z,9.93
2017-09-26T16:23:13.044Z,7.43
2017-09-26T16:25:40.593Z,8.17
2017-09-26T16:28:08.114Z,8.60
2017-09-26T16:30:35.666Z,9.00
2017-09-26T16:33:03.955Z,8.63
2017-09-26T16:35:31.519Z,7.83
2017-09-26T16:37:59.043Z,8.83
2017-09-26T16:40:26.566Z,8.87
2017-09-26T16:42:54.116Z,8.43
2017-09-26T16:45:21.651Z,10.27
2017-09-26T16:47:49.204Z,10.30
2017-09-26T16:50:17.503Z,12.80
2017-09-26T16:52:45.053Z,10.83
2017-09-26T16:55:12.584Z,10.40
2017-09-26T16:57:41.112Z,8.63
2017-09-26T17:00:08.637Z,10.93
2017-09-26T17:02:36.955Z,10.23
2017-09-26T17:05:04.479Z,9.50
2017-09-26T17:07:32.944Z,8.20
2017-09-26T17:10:01.251Z,11.43
2017-09-26T17:12:28.802Z,11.07
2017-09-26T17:14:56.337Z,8.40
2017-09-26T17:17:24.659Z,9.27
2017-09-26T17:19:52.187Z,9.43
2017-09-26T17:22:20.508Z,9.00
2017-09-26T17:24:48.035Z,10.30
2017-09-26T17:27:15.939Z,9.00
2017-09-26T17:29:44.319Z,8.90
2017-09-26T17:32:11.871Z,11.13
2017-09-26T17:34:39.544Z,9.27
2017-09-26T17:37:07.118Z,10.20
2017-09-26T17:39:34.671Z,9.63
2017-09-26T17:42:02.195Z,9.57
2017-09-26T17:44:29.839Z,10.30
2017-09-26T17:46:58.135Z,10.90
2017-09-26T17:51:59.751Z,10.17
2017-09-26T17:54:27.335Z,11.33
2017-09-26T17:56:55.867Z,10.20
2017-09-26T17:59:23.424Z,11.13
2017-09-26T18:01:50.958Z,14.50
2017-09-26T18:04:18.525Z,11.07
2017-09-26T18:06:46.050Z,11.27
2017-09-26T18:09:13.782Z,9.03
2017-09-26T18:11:41.604Z,12.70
2017-09-26T18:14:09.191Z,11.43
2017-09-26T18:16:36.723Z,11.83
2017-09-26T18:19:04.271Z,11.90
2017-09-26T18:21:32.807Z,11.60
2017-09-26T18:26:35.776Z,12.83
2017-09-26T18:29:03.326Z,13.40
2017-09-26T18:31:31.631Z,12.13
2017-09-26T18:33:59.195Z,13.20
2017-09-26T18:36:26.722Z,12.30
2017-09-26T18:38:55.030Z,11.70
2017-09-26T18:41:22.591Z,13.60
2017-09-26T18:43:50.220Z,13.10
2017-09-26T18:46:18.768Z,13.00
2017-09-26T18:48:46.307Z,11.33
2017-09-26T18:51:13.876Z,13.87
2017-09-26T18:53:41.411Z,16.60
2017-09-26T18:56:08.987Z,13.93
2017-09-26T18:58:36.535Z,17.77
2017-09-26T19:01:04.219Z,13.77
2017-09-26T19:03:31.757Z,14.53
2017-09-26T19:05:59.327Z,14.93
2017-09-26T19:08:26.862Z,14.60
2017-09-26T19:10:54.433Z,18.47
2017-09-26T19:13:21.975Z,14.80
2017-09-26T19:15:49.761Z,15.20
2017-09-26T19:18:17.299Z,21.67
2017-09-26T19:20:44.862Z,17.63
2017-09-26T19:23:12.400Z,19.37
2017-09-26T19:25:40.730Z,18.90
2017-09-26T19:28:08.269Z,19.00
2017-09-26T19:30:35.832Z,18.63
2017-09-26T19:33:03.362Z,20.40
2017-09-26T19:35:31.686Z,19.43
2017-09-26T19:37:59.222Z,15.57
2017-09-26T19:40:26.811Z,19.30
2017-09-26T19:42:54.352Z,20.80
2017-09-26T19:45:21.887Z,18.17
2017-09-26T19:47:49.444Z,19.57
2017-09-26T19:50:17.739Z,17.70
2017-09-26T19:52:45.299Z,17.20
2017-09-26T19:55:12.831Z,21.60
2017-09-26T19:57:41.159Z,24.20
2017-09-26T20:00:08.695Z,15.00
2017-09-26T20:02:36.475Z,19.50
2017-09-26T20:05:04.015Z,19.67
2017-09-26T20:07:31.577Z,20.53
2017-09-26T20:09:59.116Z,29.23
2017-09-26T20:12:27.443Z,21.47
2017-09-26T20:14:54.984Z,20.03
2017-09-26T20:17:22.540Z,20.17
2017-09-26T20:19:50.066Z,18.60
2017-09-26T20:22:18.399Z,16.17
2017-09-26T20:24:45.929Z,21.23
2017-09-26T20:27:13.483Z,19.80
2017-09-26T20:29:41.023Z,18.10
2017-09-26T20:32:09.342Z,17.47
2017-09-26T20:34:36.870Z,20.07
2017-09-26T20:37:04.430Z,20.57
2017-09-26T20:39:31.966Z,20.43
2017-09-26T20:42:00.314Z,19.90
2017-09-26T20:44:27.854Z,20.77
2017-09-26T20:46:55.430Z,22.47
2017-09-26T20:49:23.195Z,20.20
2017-09-26T20:51:50.747Z,24.43
2017-09-26T20:54:18.302Z,22.67
2017-09-26T20:56:45.895Z,23.07
2017-09-26T20:59:13.463Z,23.13
2017-09-26T21:01:41.033Z,21.93
2017-09-26T21:04:09.411Z,24.53
2017-09-26T21:06:37.006Z,31.83
2017-09-26T21:09:04.615Z,29.03
2017-09-26T21:11:32.159Z,29.33
2017-09-26T21:13:59.723Z,29.63
2017-09-26T21:16:27.254Z,28.70
2017-09-26T21:18:54.849Z,30.43
2017-09-26T21:21:22.391Z,27.40
2017-09-26T21:23:50.021Z,29.63
2017-09-26T21:26:18.316Z,26.00
2017-09-26T21:28:45.873Z,24.17
2017-09-26T21:31:13.416Z,26.10
2017-09-26T21:33:40.976Z,28.10
2017-09-26T21:36:08.507Z,22.60
2017-09-26T21:38:36.069Z,23.50
2017-09-26T21:41:04.374Z,27.87
2017-09-26T21:43:31.943Z,24.80
2017-09-26T21:45:59.474Z,27.43
2017-09-26T21:48:27.797Z,28.63
2017-09-26T21:50:55.322Z,27.50
2017-09-26T21:53:22.858Z,27.13
2017-09-26T21:55:51.187Z,29.67
2017-09-26T21:58:18.729Z,29.70
2017-09-26T22:00:46.287Z,28.53
2017-09-26T22:03:13.815Z,29.57
2017-09-26T22:05:41.372Z,30.60
2017-09-26T22:08:08.905Z,32.33
2017-09-26T22:10:36.467Z,33.00
2017-09-26T22:13:04.015Z,28.10
2017-09-26T22:15:31.662Z,28.33
2017-09-26T22:17:59.207Z,24.47
2017-09-26T22:20:26.771Z,27.57
2017-09-26T22:22:54.307Z,26.60
2017-09-26T22:25:22.639Z,27.47
2017-09-26T22:27:50.181Z,26.53
2017-09-26T22:30:17.730Z,27.93
2017-09-26T22:52:02.656Z,39.10
2017-09-26T22:54:30.198Z,45.13
2017-09-26T22:56:57.760Z,49.10
2017-09-26T22:59:25.294Z,38.77
2017-09-26T23:01:52.858Z,40.73
2017-09-26T23:04:20.395Z,31.73
2017-09-26T23:07:05.431Z,32.40
2017-09-26T23:09:32.967Z,28.10
2017-09-26T23:12:00.526Z,28.70
2017-09-26T23:17:20.779Z,33.87
2017-09-26T23:19:48.310Z,35.37
2017-09-26T23:22:15.875Z,29.37
2017-09-26T23:24:43.414Z,31.90
2017-09-26T23:27:10.966Z,30.77
2017-09-26T23:29:38.503Z,33.20
2017-09-26T23:32:06.836Z,28.47
2017-09-26T23:34:34.391Z,33.43
2017-09-26T23:37:01.983Z,27.87
2017-09-26T23:39:29.519Z,34.27
2017-09-26T23:41:57.081Z,28.90
2017-09-26T23:44:24.623Z,30.83
2017-09-26T23:46:52.188Z,30.53
2017-09-26T23:49:19.714Z,32.07
2017-09-26T23:51:47.267Z,32.00
2017-09-26T23:54:14.804Z,36.37
2017-09-26T23:56:43.107Z,35.80
2017-09-26T23:59:10.668Z,31.57
